Latest Coastal Weather Observations for Port Hedland

IDW60701

Issued at 8:42 am WST Saturday 30 May 2015 (issued every 10 minutes, with the page automatically refreshed every 10 minutes)

About coastal observations | Map of coastal stations | Coastal observations for WA | Marine services | Other Formats
Station Details ID: 004032 Name: PORT HEDLAND AIRPORT Lat: -20.37 Lon: 118.63 Height: 6.4 m
Data from the previous 72 hours. | See also: Recent months at Port Hedland
Date/Time
WST
Temp

°C
Wind Pressure Rain
since 9am
mm
Weather Cloud Vis
km
Sea
Height
m
Swell
Dir
 
Speed
knots
Gust
knots
hPa Trend Height
m
Period
s
Dir
30/08:30am 22.6 SE 11 16 1019.0 - 0.0 - - 10 - - - -
30/08:00am 21.4 SSE 12 16 1018.7 - 0.0 - - 10 - - - -
30/07:30am 20.5 SSE 10 12 1018.6 - 0.0 - - 10 - - - -
30/07:00am 19.8 SSE 9 12 1018.4 - 0.0 - - 10 - - - -
30/06:30am 19.7 SSE 11 15 1018.1 - 0.0 - - 10 - - - -
30/06:00am 19.7 SSE 8 11 1017.9 - 0.0 - - 10 - - - -
30/05:30am 19.9 S 6 8 1017.6 - 0.0 - Partly cloudy 10 - - - -
30/05:00am 20.2 S 6 8 1017.3 - 0.0 - Partly cloudy 10 - - - -
30/04:30am 20.6 S 7 9 1017.2 - 0.0 - Partly cloudy 10 - - - -
30/04:00am 20.7 SSE 7 8 1017.2 - 0.0 - Partly cloudy 10 - - - -
30/03:30am 21.1 SSE 7 9 1017.4 - 0.0 - Partly cloudy 10 - - - -
30/03:00am 21.0 SSE 8 11 1017.4 - 0.0 - Mostly cloudy 10 - - - -
30/02:30am 20.9 S 7 9 1017.5 - 0.0 - Partly cloudy 10 - - - -
30/02:00am 21.1 S 7 8 1017.7 - 0.0 - Partly cloudy 10 - - - -
30/01:30am 21.4 S 6 9 1017.7 - 0.0 - Partly cloudy 10 - - - -
30/01:00am 21.3 S 6 7 1017.9 - 0.0 - Partly cloudy 10 - - - -
30/12:30am 21.5 S 5 7 1017.8 - 0.0 - Partly cloudy 10 - - - -
30/12:00am 21.6 SSE 5 6 1018.0 - 0.0 - Mostly cloudy 10 - - - -
 
Date/Time
WST
Temp

°C
Wind Pressure Rain
since 9am
mm
Weather Cloud Vis
km
Sea
Height
m
Swell
Dir
 
Speed
knots
Gust
knots
hPa Trend Height
m
Period
s
Dir
29/11:30pm 21.9 SSE 5 6 1017.7 - 0.0 - Partly cloudy 10 - - - -
29/11:00pm 22.2 SSE 6 7 1017.9 - 0.0 - Partly cloudy 10 - - - -
29/10:30pm 22.6 SE 5 8 1017.7 - 0.0 - Partly cloudy 10 - - - -
29/10:00pm 22.6 ESE 5 6 1017.6 - 0.0 - Partly cloudy 10 - - - -
29/09:30pm 22.9 SSE 6 7 1017.6 - 0.0 - Partly cloudy 10 - - - -
29/09:00pm 23.2 S 7 9 1017.5 - 0.0 - Mostly cloudy 10 - - - -
29/08:30pm 23.5 SE 6 8 1017.5 - 0.0 - Partly cloudy 10 - - - -
29/08:00pm 23.6 SE 8 11 1017.2 - 0.0 - Cloudy 10 - - - -
29/07:30pm 23.6 SSE 9 11 1017.1 - 0.0 - Partly cloudy 10 - - - -
29/07:00pm 23.8 S 9 12 1016.9 - 0.0 - Partly cloudy 10 - - - -
29/06:30pm 24.2 S 9 12 1016.4 - 0.0 - - 10 - - - -
29/06:00pm 24.9 S 9 12 1016.0 - 0.0 - Mostly cloudy 10 - - - -
29/05:30pm 25.6 S 9 13 1015.8 - 0.0 - Partly cloudy 10 - - - -
29/05:00pm 26.6 S 6 7 1015.4 - 0.0 - Partly cloudy 10 - - - -
29/04:30pm 26.9 SSE 6 7 1015.0 - 0.0 - Partly cloudy 10 - - - -
29/04:00pm 26.9 SSE 7 9 1014.9 - 0.0 - Partly cloudy 10 - - - -
29/03:30pm 27.2 E 4 6 1014.8 - 0.0 - Partly cloudy 10 - - - -
29/03:00pm 27.3 ESE 4 6 1014.7 - 0.0 - Cloudy 10 - - - -
29/02:30pm 27.2 ESE 5 8 1014.7 - 0.0 - Partly cloudy 10 - - - -
29/02:00pm 27.3 SE 6 9 1014.8 - 0.0 - Partly cloudy 10 - - - -
29/01:30pm 27.7 E 8 11 1014.8 - 0.0 - Partly cloudy 10 - - - -
29/01:00pm 27.2 ESE 8 12 1015.1 - 0.0 - - 10 - - - -
29/12:30pm 26.3 ESE 8 11 1015.7 - 0.0 - Partly cloudy 10 - - - -
29/12:00pm 26.7 E 8 12 1016.1 - 0.0 - - 10 - - - -
29/11:30am 25.4 ESE 7 10 1016.5 - 0.0 - Partly cloudy 10 - - - -
29/11:00am 24.5 SE 7 11 1017.0 - 0.0 - - 10 - - - -
29/10:30am 24.0 SSE 8 13 1017.4 - 0.0 - Partly cloudy 10 - - - -
29/10:00am 24.0 SSE 9 12 1017.7 - 0.0 - Partly cloudy 10 - - - -
29/09:30am 23.4 SSE 9 13 1017.9 - 0.0 - Partly cloudy 10 - - - -
29/09:00am 22.7 SE 9 13 1017.9 - 6.2 - Mostly clear 10 - - - -
29/08:30am 21.5 SSE 8 12 1017.6 - 6.2 - Cloudy 10 - - - -
29/08:00am 21.4 SE 8 11 1017.2 - 6.2 - Partly cloudy 10 - - - -
29/07:30am 20.6 SE 6 9 1016.8 - 6.2 - Partly cloudy 10 - - - -
29/07:00am 19.9 ESE 5 6 1016.3 - 6.2 - Partly cloudy 10 - - - -
29/06:30am 19.4 E 5 6 1016.0 - 6.2 - Partly cloudy 10 - - - -
29/06:00am 19.5 ESE 5 7 1015.7 - 6.2 - Cloudy 10 - - - -
29/05:30am 19.6 ESE 6 8 1015.4 - 6.2 - - 10 - - - -
29/05:00am 20.0 ESE 5 6 1015.3 - 6.2 - Partly cloudy 10 - - - -
29/04:30am 20.1 SSE 5 6 1015.4 - 6.2 - Partly cloudy 10 - - - -
29/04:00am 20.1 ESE 5 7 1015.3 - 6.0 - Partly cloudy 10 - - - -
29/03:30am 20.1 SE 7 10 1015.0 - 6.0 - Partly cloudy 10 - - - -
29/03:00am 20.1 ESE 7 9 1015.3 - 6.0 - Cloudy 10 - - - -
29/02:30am 20.2 E 5 7 1015.6 - 5.0 - Partly cloudy 10 - - - -
29/02:00am 20.3 ESE 6 9 1016.0 - 4.6 - Partly cloudy 10 - - - -
29/01:30am 20.3 ENE 4 5 1016.2 - 4.6 - Partly cloudy 10 - - - -
29/01:00am 20.3 SE 4 5 1016.1 - 4.4 - Partly cloudy 10 - - - -
29/12:30am 20.3 ESE 4 5 1016.2 - 4.2 - Partly cloudy 10 - - - -
29/12:00am 20.3 SE 3 4 1016.2 - 3.4 - Mostly cloudy 10 - - - -
 
Date/Time
WST
Temp

°C
Wind Pressure Rain
since 9am
mm
Weather Cloud Vis
km
Sea
Height
m
Swell
Dir
 
Speed
knots
Gust
knots
hPa Trend Height
m
Period
s
Dir
28/11:30pm 20.4 SSE 4 5 1016.3 - 3.4 - Partly cloudy 10 - - - -
28/11:00pm 20.4 SSW 3 5 1017.0 - 3.2 - Partly cloudy 10 - - - -
28/10:30pm 20.4 S 5 6 1016.7 - 3.0 - Partly cloudy 10 - - - -
28/10:00pm 20.4 S 9 11 1016.1 - 2.8 - Partly cloudy 10 - - - -
28/09:30pm 20.4 SSE 9 12 1016.0 - 2.6 - Partly cloudy 10 - - - -
28/09:00pm 20.4 SSE 8 10 1016.5 - 2.2 - Partly cloudy 10 - - - -
28/08:30pm 20.5 S 8 10 1016.5 - 1.6 - Partly cloudy 10 - - - -
28/08:00pm 20.7 SSE 9 13 1016.0 - 0.8 - Partly cloudy 10 - - - -
28/07:30pm 20.9 S 10 13 1015.8 - 0.6 - Partly cloudy 10 - - - -
28/07:00pm 21.5 SSE 10 13 1015.3 - 0.2 - Partly cloudy 10 - - - -
28/06:30pm 21.8 SSE 9 12 1015.3 - 0.2 - Partly cloudy 10 - - - -
28/06:00pm 22.4 SSE 8 10 1015.0 - 0.2 - Cloudy 10 - - - -
28/05:30pm 22.7 SSE 7 9 1014.7 - 0.2 - Partly cloudy 10 - - - -
28/05:00pm 22.9 SE 7 10 1014.6 - 0.2 - Partly cloudy 10 - - - -
28/04:30pm 23.0 SE 9 12 1014.0 - 0.2 - Partly cloudy 10 - - - -
28/04:00pm 22.8 SE 7 10 1014.2 - 0.2 - Partly cloudy 10 - - - -
28/03:30pm 21.9 ESE 6 9 1014.1 - 0.2 - Partly cloudy 10 - - - -
28/03:00pm 22.8 E 8 10 1014.1 R 0.2 Rain Cloudy 20 - - - -
28/02:30pm 23.8 E 7 9 1014.1 - 0.2 Rain Partly cloudy 10 - - - -
28/02:00pm 24.2 E 7 9 1014.1 - 0.2 Rain Partly cloudy 10 - - - -
28/01:30pm 24.3 E 6 9 1014.3 - 0.2 - Partly cloudy 10 - - - -
28/01:00pm 24.2 ESE 8 10 1014.5 - 0.2 - Mostly clear 10 - - - -
28/12:30pm 24.0 E 8 12 1014.8 - 0.0 - Mostly clear 10 - - - -
28/12:00pm 24.1 E 8 11 1015.1 R 0.0 Fine Mostly cloudy 30 - - - -
28/11:30am 23.6 E 9 12 1015.3 - 0.0 - Partly cloudy 10 - - - -
28/11:00am 22.4 E 10 12 1015.7 - 0.0 - Partly cloudy 10 - - - -
28/10:30am 21.8 E 10 13 1015.7 - 0.0 - Partly cloudy 10 - - - -
28/10:00am 21.3 ESE 7 9 1016.5 - 0.0 - Partly cloudy 10 - - - -
28/09:30am 20.6 ESE 6 9 1016.8 - 0.0 - Partly cloudy 10 - - - -
28/09:00am 20.2 ESE 6 9 1016.5 R 3.6 Recent precip. Mostly cloudy 30 - - - -
28/08:30am 19.5 ESE 6 8 1016.4 - 3.6 Rain Mostly clear 10 - - - -
28/08:00am 19.0 SE 5 8 1016.4 - 3.6 Rain Mostly clear 10 - - - -
28/07:30am 18.9 SE 5 7 1016.2 - 3.4 - Partly cloudy 10 - - - -
28/07:00am 18.7 SE 5 7 1015.6 - 3.4 Showers Partly cloudy 10 - - - -
28/06:30am 18.7 ESE 6 8 1015.1 - 3.2 Showers Mostly clear 10 - - - -
28/06:00am 18.8 ESE 7 8 1014.8 F 3.0 Showers Mostly cloudy 30 - - - -
28/05:30am 18.9 SE 6 9 1014.9 - 3.0 - Partly cloudy 10 - - - -
28/05:00am 18.9 ESE 8 11 1014.4 - 3.0 - Partly cloudy 10 - - - -
28/04:30am 18.9 ESE 9 13 1014.3 - 3.0 - Partly cloudy 10 - - - -
28/04:00am 18.7 ESE 8 11 1014.4 - 3.0 - Partly cloudy 10 - - - -
28/03:30am 18.8 ESE 8 10 1014.5 - 3.0 - Partly cloudy 10 - - - -
28/03:00am 18.8 SE 7 10 1014.7 - 3.0 - Cloudy 10 - - - -
28/02:30am 18.8 ESE 8 12 1014.9 - 3.0 - Cloudy 10 - - - -
28/02:00am 18.6 ESE 9 13 1015.1 - 3.0 - Partly cloudy 10 - - - -
28/01:30am 18.5 E 11 16 1015.3 - 3.0 - Partly cloudy 10 - - - -
28/01:00am 18.8 SE 10 13 1015.5 - 3.0 - Partly cloudy 10 - - - -
28/12:30am 19.1 ESE 10 14 1015.8 - 3.0 - Cloudy 10 - - - -
28/12:00am 19.2 ESE 8 12 1015.7 - 3.0 - Cloudy 10 - - - -
 
Date/Time
WST
Temp

°C
Wind Pressure Rain
since 9am
mm
Weather Cloud Vis
km
Sea
Height
m
Swell
Dir
 
Speed
knots
Gust
knots
hPa Trend Height
m
Period
s
Dir
27/11:30pm 19.3 SE 8 11 1015.9 - 3.0 - Cloudy 10 - - - -
27/11:00pm 19.4 SE 9 14 1016.1 - 3.0 - Cloudy 10 - - - -
27/10:30pm 19.5 SSE 8 11 1016.1 - 3.0 - Cloudy 10 - - - -
27/10:00pm 19.5 SE 9 14 1016.1 - 3.0 - Partly cloudy 10 - - - -
27/09:30pm 19.7 SSE 9 11 1016.1 - 3.0 - Cloudy 10 - - - -
27/09:00pm 19.7 SSE 9 12 1015.9 - 3.0 - Cloudy 10 - - - -
27/08:30pm 19.7 ESE 10 13 1015.6 - 3.0 - Partly cloudy 10 - - - -
27/08:00pm 19.8 SE 9 13 1015.7 - 3.0 - Partly cloudy 10 - - - -
27/07:30pm 19.6 SSE 10 13 1015.6 - 3.0 - Partly cloudy 10 - - - -
27/07:00pm 19.6 SSE 10 13 1015.0 - 3.0 - Partly cloudy 10 - - - -
27/06:30pm 19.5 SSE 10 15 1014.8 - 3.0 - Partly cloudy 10 - - - -
27/06:00pm 19.4 SSE 11 14 1014.1 - 3.0 - Cloudy 10 - - - -
27/05:30pm 19.6 S 13 18 1014.5 - 3.0 - Partly cloudy 10 - - - -
27/05:29pm 19.6 S 13 18 1014.5 - 3.0 - Partly cloudy 10 - - - -
27/05:16pm 19.5 S 7 10 1014.3 - 2.8 - Partly cloudy 6 - - - -
27/05:06pm 19.6 SSW 8 10 1014.8 - 1.6 - Partly cloudy 10 - - - -
27/05:04pm 19.5 SSW 9 10 1014.7 - 1.6 - Partly cloudy 10 - - - -
27/05:00pm 19.6 S 10 13 1014.3 - 1.6 - Partly cloudy 10 - - - -
27/04:47pm 19.6 S 11 16 1014.0 - 1.4 - Partly cloudy 6 - - - -
27/04:30pm 19.9 S 12 16 1013.9 - 0.4 - Partly cloudy 10 - - - -
27/04:00pm 20.1 S 12 15 1013.8 - 0.4 - Cloudy 10 - - - -
27/03:46pm 20.3 S 10 15 1013.7 - 0.4 - Partly cloudy 10 - - - -
27/03:30pm 20.6 SE 10 13 1013.2 - 0.4 - Partly cloudy 10 - - - -
27/03:00pm 20.6 SE 9 13 1012.7 S 0.2 Distant precip. Mostly cloudy 30 - - - -
27/02:30pm 20.9 SSE 14 19 1012.8 - 0.2 Showers Mostly clear 10 - - - -
27/02:00pm 21.0 SSE 13 17 1013.1 - 0.2 Showers Mostly clear 10 - - - -
27/01:30pm 20.6 SSE 13 17 1013.0 - 0.2 - Mostly clear 10 - - - -
27/01:00pm 21.0 S 14 17 1014.0 - 0.2 - Mostly clear 10 - - - -
27/12:30pm 22.6 SSE 9 12 1014.5 - 0.2 Showers Mostly clear 10 - - - -
27/12:00pm 23.8 SSE 9 11 1014.6 F 0.0 Showers Mostly cloudy 30 - - - -
27/11:30am 24.2 ESE 9 11 1014.8 - 0.0 - Mostly clear 10 - - - -
27/11:00am 23.1 ESE 9 11 1015.1 - 0.0 - Mostly clear 10 - - - -
27/10:30am 22.2 ESE 10 13 1015.6 - 0.0 - Mostly clear 10 - - - -
27/10:00am 21.4 ESE 10 13 1016.0 - 0.0 - Partly cloudy 10 - - - -
27/09:30am 20.9 ESE 7 10 1016.4 - 0.0 - Mostly clear 10 - - - -
27/09:00am 20.3 SE 5 8 1016.3 R 6.0 Recent precip. Mostly cloudy 30 - - - -

Other Formats:

Comma delimited format used in spreadsheet applications
http://www.bom.gov.au/fwo/IDW60701/IDW60701.94312.axf

JavaScript Object Notation format (JSON) in row-major order
http://www.bom.gov.au/fwo/IDW60701/IDW60701.94312.json